sensor_id;sensor_type;location;lat;lon;timestamp;P1;durP1;ratioP1;P2;durP2;ratioP2
57389;SDS011;43217;52.694;6.214;2023-07-16T00:01:05;9.88;;;3.03;;
57389;SDS011;43217;52.694;6.214;2023-07-16T00:03:30;9.40;;;2.85;;
57389;SDS011;43217;52.694;6.214;2023-07-16T00:05:56;9.30;;;3.65;;
57389;SDS011;43217;52.694;6.214;2023-07-16T00:08:22;8.40;;;2.35;;
57389;SDS011;43217;52.694;6.214;2023-07-16T00:10:47;7.80;;;2.60;;
57389;SDS011;43217;52.694;6.214;2023-07-16T00:13:13;10.65;;;3.13;;
57389;SDS011;43217;52.694;6.214;2023-07-16T00:15:39;7.75;;;2.78;;
57389;SDS011;43217;52.694;6.214;2023-07-16T00:18:04;8.40;;;2.83;;
57389;SDS011;43217;52.694;6.214;2023-07-16T00:20:31;6.82;;;2.60;;
57389;SDS011;43217;52.694;6.214;2023-07-16T00:22:57;6.50;;;2.50;;
57389;SDS011;43217;52.694;6.214;2023-07-16T00:25:23;8.45;;;2.60;;
57389;SDS011;43217;52.694;6.214;2023-07-16T00:27:49;5.93;;;2.80;;
57389;SDS011;43217;52.694;6.214;2023-07-16T00:30:14;6.35;;;2.80;;
57389;SDS011;43217;52.694;6.214;2023-07-16T00:32:40;7.00;;;2.38;;
57389;SDS011;43217;52.694;6.214;2023-07-16T00:35:06;6.57;;;2.80;;
57389;SDS011;43217;52.694;6.214;2023-07-16T00:37:33;7.85;;;2.42;;
57389;SDS011;43217;52.694;6.214;2023-07-16T00:39:59;7.05;;;2.75;;
57389;SDS011;43217;52.694;6.214;2023-07-16T00:42:24;6.00;;;2.42;;
57389;SDS011;43217;52.694;6.214;2023-07-16T00:44:50;6.00;;;2.58;;
57389;SDS011;43217;52.694;6.214;2023-07-16T00:47:16;8.60;;;3.05;;
57389;SDS011;43217;52.694;6.214;2023-07-16T00:49:41;9.48;;;3.30;;
57389;SDS011;43217;52.694;6.214;2023-07-16T00:52:09;6.68;;;3.05;;
57389;SDS011;43217;52.694;6.214;2023-07-16T00:54:40;7.35;;;3.08;;
57389;SDS011;43217;52.694;6.214;2023-07-16T00:57:06;6.93;;;2.95;;
57389;SDS011;43217;52.694;6.214;2023-07-16T00:59:33;6.45;;;2.92;;
57389;SDS011;43217;52.694;6.214;2023-07-16T01:01:58;6.93;;;3.20;;
57389;SDS011;43217;52.694;6.214;2023-07-16T01:04:24;7.35;;;3.20;;
57389;SDS011;43217;52.694;6.214;2023-07-16T01:06:53;8.40;;;3.40;;
57389;SDS011;43217;52.694;6.214;2023-07-16T01:09:22;10.77;;;3.70;;
57389;SDS011;43217;52.694;6.214;2023-07-16T01:11:49;6.17;;;3.17;;
57389;SDS011;43217;52.694;6.214;2023-07-16T01:14:16;8.43;;;3.38;;
57389;SDS011;43217;52.694;6.214;2023-07-16T01:16:43;6.28;;;3.10;;
57389;SDS011;43217;52.694;6.214;2023-07-16T01:19:09;6.68;;;3.03;;
57389;SDS011;43217;52.694;6.214;2023-07-16T01:21:38;6.28;;;2.97;;
57389;SDS011;43217;52.694;6.214;2023-07-16T01:29:51;6.53;;;3.15;;
57389;SDS011;43217;52.694;6.214;2023-07-16T01:32:19;6.22;;;3.22;;
57389;SDS011;43217;52.694;6.214;2023-07-16T01:34:46;6.20;;;3.50;;
57389;SDS011;43217;52.694;6.214;2023-07-16T01:37:13;7.93;;;3.75;;
57389;SDS011;43217;52.694;6.214;2023-07-16T01:39:38;6.75;;;3.50;;
57389;SDS011;43217;52.694;6.214;2023-07-16T01:42:04;7.15;;;3.33;;
57389;SDS011;43217;52.694;6.214;2023-07-16T01:44:30;8.18;;;3.40;;
57389;SDS011;43217;52.694;6.214;2023-07-16T01:50:00;7.30;;;3.53;;
57389;SDS011;43217;52.694;6.214;2023-07-16T01:52:25;7.25;;;3.85;;
57389;SDS011;43217;52.694;6.214;2023-07-16T01:54:51;4.72;;;3.42;;
57389;SDS011;43217;52.694;6.214;2023-07-16T01:57:17;5.18;;;3.40;;
57389;SDS011;43217;52.694;6.214;2023-07-16T01:59:42;5.63;;;3.85;;
57389;SDS011;43217;52.694;6.214;2023-07-16T02:02:08;10.57;;;3.55;;
57389;SDS011;43217;52.694;6.214;2023-07-16T02:04:35;7.68;;;3.42;;
57389;SDS011;43217;52.694;6.214;2023-07-16T02:07:00;6.57;;;3.45;;
57389;SDS011;43217;52.694;6.214;2023-07-16T02:09:26;7.95;;;3.60;;
57389;SDS011;43217;52.694;6.214;2023-07-16T02:11:51;7.68;;;3.60;;
57389;SDS011;43217;52.694;6.214;2023-07-16T02:14:17;6.60;;;3.83;;
57389;SDS011;43217;52.694;6.214;2023-07-16T02:16:43;8.18;;;3.78;;
57389;SDS011;43217;52.694;6.214;2023-07-16T02:19:08;8.90;;;3.45;;
57389;SDS011;43217;52.694;6.214;2023-07-16T02:21:34;7.60;;;3.47;;
57389;SDS011;43217;52.694;6.214;2023-07-16T02:24:00;6.32;;;3.22;;
57389;SDS011;43217;52.694;6.214;2023-07-16T02:26:25;5.35;;;3.13;;
57389;SDS011;43217;52.694;6.214;2023-07-16T02:28:51;6.85;;;3.60;;
57389;SDS011;43217;52.694;6.214;2023-07-16T02:31:16;5.65;;;3.25;;
57389;SDS011;43217;52.694;6.214;2023-07-16T02:33:42;8.90;;;3.40;;
57389;SDS011;43217;52.694;6.214;2023-07-16T02:36:08;6.43;;;3.80;;
57389;SDS011;43217;52.694;6.214;2023-07-16T02:38:33;10.88;;;3.60;;
57389;SDS011;43217;52.694;6.214;2023-07-16T02:40:59;8.13;;;3.78;;
57389;SDS011;43217;52.694;6.214;2023-07-16T02:43:25;6.72;;;3.70;;
57389;SDS011;43217;52.694;6.214;2023-07-16T02:45:51;7.00;;;4.25;;
57389;SDS011;43217;52.694;6.214;2023-07-16T02:48:16;8.10;;;3.90;;
57389;SDS011;43217;52.694;6.214;2023-07-16T02:50:42;8.30;;;4.40;;
57389;SDS011;43217;52.694;6.214;2023-07-16T02:53:08;6.50;;;3.72;;
57389;SDS011;43217;52.694;6.214;2023-07-16T02:55:34;9.07;;;4.05;;
57389;SDS011;43217;52.694;6.214;2023-07-16T02:58:00;7.53;;;4.30;;
57389;SDS011;43217;52.694;6.214;2023-07-16T03:00:30;8.70;;;3.88;;
57389;SDS011;43217;52.694;6.214;2023-07-16T03:02:56;10.40;;;3.95;;
57389;SDS011;43217;52.694;6.214;2023-07-16T03:05:23;7.95;;;4.60;;
57389;SDS011;43217;52.694;6.214;2023-07-16T03:07:49;7.03;;;4.47;;
57389;SDS011;43217;52.694;6.214;2023-07-16T03:10:15;8.00;;;4.15;;
57389;SDS011;43217;52.694;6.214;2023-07-16T03:12:41;8.27;;;4.63;;
57389;SDS011;43217;52.694;6.214;2023-07-16T03:15:07;7.53;;;4.50;;
57389;SDS011;43217;52.694;6.214;2023-07-16T03:17:33;8.95;;;4.75;;
57389;SDS011;43217;52.694;6.214;2023-07-16T03:19:58;7.95;;;4.13;;
57389;SDS011;43217;52.694;6.214;2023-07-16T03:22:24;8.85;;;4.18;;
57389;SDS011;43217;52.694;6.214;2023-07-16T03:24:50;8.32;;;4.78;;
57389;SDS011;43217;52.694;6.214;2023-07-16T03:27:16;7.82;;;4.55;;
57389;SDS011;43217;52.694;6.214;2023-07-16T03:29:41;7.72;;;4.43;;
57389;SDS011;43217;52.694;6.214;2023-07-16T03:32:07;12.35;;;4.93;;
57389;SDS011;43217;52.694;6.214;2023-07-16T03:34:33;9.45;;;5.53;;
57389;SDS011;43217;52.694;6.214;2023-07-16T03:36:58;8.95;;;4.95;;
57389;SDS011;43217;52.694;6.214;2023-07-16T03:39:24;8.88;;;4.80;;
57389;SDS011;43217;52.694;6.214;2023-07-16T03:41:50;6.88;;;4.38;;
57389;SDS011;43217;52.694;6.214;2023-07-16T03:44:15;9.50;;;4.78;;
57389;SDS011;43217;52.694;6.214;2023-07-16T03:46:41;9.07;;;4.90;;
57389;SDS011;43217;52.694;6.214;2023-07-16T03:49:07;8.75;;;5.55;;
57389;SDS011;43217;52.694;6.214;2023-07-16T03:51:33;10.60;;;5.10;;
57389;SDS011;43217;52.694;6.214;2023-07-16T03:54:00;9.00;;;5.13;;
57389;SDS011;43217;52.694;6.214;2023-07-16T03:56:26;9.10;;;5.45;;
57389;SDS011;43217;52.694;6.214;2023-07-16T03:58:52;9.73;;;5.28;;
57389;SDS011;43217;52.694;6.214;2023-07-16T04:01:17;10.52;;;5.32;;
57389;SDS011;43217;52.694;6.214;2023-07-16T04:03:43;9.30;;;4.78;;
57389;SDS011;43217;52.694;6.214;2023-07-16T04:06:09;9.43;;;4.85;;
57389;SDS011;43217;52.694;6.214;2023-07-16T04:08:36;11.98;;;6.65;;
57389;SDS011;43217;52.694;6.214;2023-07-16T04:11:03;9.57;;;4.28;;
57389;SDS011;43217;52.694;6.214;2023-07-16T04:13:29;9.98;;;4.55;;
57389;SDS011;43217;52.694;6.214;2023-07-16T04:15:55;7.40;;;4.85;;
57389;SDS011;43217;52.694;6.214;2023-07-16T04:18:22;9.80;;;5.10;;
57389;SDS011;43217;52.694;6.214;2023-07-16T04:20:48;10.23;;;4.53;;
57389;SDS011;43217;52.694;6.214;2023-07-16T04:23:14;10.57;;;4.90;;
57389;SDS011;43217;52.694;6.214;2023-07-16T04:25:39;10.27;;;4.63;;
57389;SDS011;43217;52.694;6.214;2023-07-16T04:28:05;9.75;;;4.43;;
57389;SDS011;43217;52.694;6.214;2023-07-16T04:30:31;9.15;;;4.65;;
57389;SDS011;43217;52.694;6.214;2023-07-16T04:32:57;13.15;;;4.88;;
57389;SDS011;43217;52.694;6.214;2023-07-16T04:35:22;9.10;;;4.50;;
57389;SDS011;43217;52.694;6.214;2023-07-16T04:37:49;7.10;;;3.72;;
57389;SDS011;43217;52.694;6.214;2023-07-16T04:40:15;8.53;;;4.30;;
57389;SDS011;43217;52.694;6.214;2023-07-16T04:42:40;7.45;;;4.32;;
57389;SDS011;43217;52.694;6.214;2023-07-16T04:45:06;8.43;;;4.63;;
57389;SDS011;43217;52.694;6.214;2023-07-16T04:47:32;9.00;;;4.07;;
57389;SDS011;43217;52.694;6.214;2023-07-16T04:49:58;9.80;;;4.75;;
57389;SDS011;43217;52.694;6.214;2023-07-16T04:52:24;9.27;;;4.20;;
57389;SDS011;43217;52.694;6.214;2023-07-16T04:54:49;9.18;;;4.68;;
57389;SDS011;43217;52.694;6.214;2023-07-16T04:57:15;7.57;;;3.90;;
57389;SDS011;43217;52.694;6.214;2023-07-16T04:59:41;6.72;;;4.60;;
57389;SDS011;43217;52.694;6.214;2023-07-16T05:02:07;7.93;;;4.20;;
57389;SDS011;43217;52.694;6.214;2023-07-16T05:04:36;7.30;;;3.70;;
57389;SDS011;43217;52.694;6.214;2023-07-16T05:07:02;7.20;;;4.18;;
57389;SDS011;43217;52.694;6.214;2023-07-16T05:09:28;8.05;;;3.97;;
57389;SDS011;43217;52.694;6.214;2023-07-16T05:11:54;8.02;;;4.10;;
57389;SDS011;43217;52.694;6.214;2023-07-16T05:14:19;9.75;;;3.70;;
57389;SDS011;43217;52.694;6.214;2023-07-16T05:16:45;9.95;;;4.15;;
57389;SDS011;43217;52.694;6.214;2023-07-16T05:19:11;8.60;;;4.18;;
57389;SDS011;43217;52.694;6.214;2023-07-16T05:21:36;9.40;;;4.03;;
57389;SDS011;43217;52.694;6.214;2023-07-16T05:24:02;7.53;;;4.40;;
57389;SDS011;43217;52.694;6.214;2023-07-16T05:26:28;8.48;;;4.20;;
57389;SDS011;43217;52.694;6.214;2023-07-16T05:28:55;7.00;;;3.88;;
57389;SDS011;43217;52.694;6.214;2023-07-16T05:31:20;5.97;;;4.22;;
57389;SDS011;43217;52.694;6.214;2023-07-16T05:33:46;7.25;;;4.10;;
57389;SDS011;43217;52.694;6.214;2023-07-16T05:36:12;7.85;;;4.22;;
57389;SDS011;43217;52.694;6.214;2023-07-16T05:38:37;8.95;;;4.35;;
57389;SDS011;43217;52.694;6.214;2023-07-16T05:41:03;6.43;;;4.05;;
57389;SDS011;43217;52.694;6.214;2023-07-16T05:43:30;11.45;;;5.63;;
57389;SDS011;43217;52.694;6.214;2023-07-16T05:45:57;5.90;;;4.30;;
57389;SDS011;43217;52.694;6.214;2023-07-16T05:48:23;8.55;;;4.65;;
57389;SDS011;43217;52.694;6.214;2023-07-16T05:50:51;10.13;;;4.45;;
57389;SDS011;43217;52.694;6.214;2023-07-16T05:53:17;8.18;;;4.63;;
57389;SDS011;43217;52.694;6.214;2023-07-16T05:55:43;6.57;;;4.43;;
57389;SDS011;43217;52.694;6.214;2023-07-16T05:58:08;8.00;;;4.40;;
57389;SDS011;43217;52.694;6.214;2023-07-16T06:00:34;8.77;;;5.13;;
57389;SDS011;43217;52.694;6.214;2023-07-16T06:03:02;8.25;;;5.65;;
57389;SDS011;43217;52.694;6.214;2023-07-16T06:05:28;6.05;;;4.20;;
57389;SDS011;43217;52.694;6.214;2023-07-16T06:07:57;8.18;;;5.22;;
57389;SDS011;43217;52.694;6.214;2023-07-16T06:10:23;8.57;;;5.55;;
57389;SDS011;43217;52.694;6.214;2023-07-16T06:12:49;9.15;;;4.90;;
57389;SDS011;43217;52.694;6.214;2023-07-16T06:15:14;9.43;;;5.30;;
57389;SDS011;43217;52.694;6.214;2023-07-16T06:17:40;7.63;;;5.03;;
57389;SDS011;43217;52.694;6.214;2023-07-16T06:20:06;8.07;;;4.35;;
57389;SDS011;43217;52.694;6.214;2023-07-16T06:22:33;7.90;;;5.18;;
57389;SDS011;43217;52.694;6.214;2023-07-16T06:24:58;8.77;;;4.38;;
57389;SDS011;43217;52.694;6.214;2023-07-16T06:27:24;10.10;;;4.85;;
57389;SDS011;43217;52.694;6.214;2023-07-16T06:29:50;9.00;;;4.75;;
57389;SDS011;43217;52.694;6.214;2023-07-16T06:32:16;8.10;;;4.85;;
57389;SDS011;43217;52.694;6.214;2023-07-16T06:34:42;8.88;;;4.95;;
57389;SDS011;43217;52.694;6.214;2023-07-16T06:37:08;6.70;;;4.63;;
57389;SDS011;43217;52.694;6.214;2023-07-16T06:39:34;5.53;;;4.43;;
57389;SDS011;43217;52.694;6.214;2023-07-16T06:41:59;6.32;;;4.90;;
57389;SDS011;43217;52.694;6.214;2023-07-16T06:44:25;8.73;;;5.25;;
57389;SDS011;43217;52.694;6.214;2023-07-16T06:46:51;6.15;;;4.78;;
57389;SDS011;43217;52.694;6.214;2023-07-16T06:49:17;7.57;;;4.85;;
57389;SDS011;43217;52.694;6.214;2023-07-16T06:51:43;6.50;;;4.80;;
57389;SDS011;43217;52.694;6.214;2023-07-16T06:54:09;6.25;;;4.70;;
57389;SDS011;43217;52.694;6.214;2023-07-16T06:56:34;9.98;;;4.90;;
57389;SDS011;43217;52.694;6.214;2023-07-16T06:59:00;6.30;;;4.70;;
57389;SDS011;43217;52.694;6.214;2023-07-16T07:01:26;6.88;;;4.97;;
57389;SDS011;43217;52.694;6.214;2023-07-16T07:03:53;5.53;;;4.25;;
57389;SDS011;43217;52.694;6.214;2023-07-16T07:06:18;7.68;;;5.32;;
57389;SDS011;43217;52.694;6.214;2023-07-16T07:08:44;6.95;;;4.70;;
57389;SDS011;43217;52.694;6.214;2023-07-16T07:11:10;7.40;;;4.50;;
57389;SDS011;43217;52.694;6.214;2023-07-16T07:13:36;6.25;;;3.88;;
57389;SDS011;43217;52.694;6.214;2023-07-16T07:16:01;6.10;;;3.97;;
57389;SDS011;43217;52.694;6.214;2023-07-16T07:18:27;6.72;;;4.53;;
57389;SDS011;43217;52.694;6.214;2023-07-16T07:20:53;6.80;;;4.85;;
57389;SDS011;43217;52.694;6.214;2023-07-16T07:23:18;6.93;;;4.38;;
57389;SDS011;43217;52.694;6.214;2023-07-16T07:25:48;6.65;;;4.45;;
57389;SDS011;43217;52.694;6.214;2023-07-16T07:28:17;6.18;;;4.00;;
57389;SDS011;43217;52.694;6.214;2023-07-16T07:33:10;7.00;;;4.30;;
57389;SDS011;43217;52.694;6.214;2023-07-16T07:35:36;6.47;;;4.47;;
57389;SDS011;43217;52.694;6.214;2023-07-16T07:38:01;6.82;;;4.40;;
57389;SDS011;43217;52.694;6.214;2023-07-16T07:40:27;4.32;;;3.75;;
57389;SDS011;43217;52.694;6.214;2023-07-16T07:42:53;6.47;;;4.03;;
57389;SDS011;43217;52.694;6.214;2023-07-16T07:45:18;6.55;;;4.22;;
57389;SDS011;43217;52.694;6.214;2023-07-16T07:47:44;8.73;;;4.10;;
57389;SDS011;43217;52.694;6.214;2023-07-16T07:50:10;7.40;;;4.63;;
57389;SDS011;43217;52.694;6.214;2023-07-16T07:52:36;5.18;;;3.97;;
57389;SDS011;43217;52.694;6.214;2023-07-16T07:55:02;5.07;;;4.10;;
57389;SDS011;43217;52.694;6.214;2023-07-16T07:57:28;7.05;;;4.13;;
57389;SDS011;43217;52.694;6.214;2023-07-16T07:59:54;6.90;;;3.93;;
57389;SDS011;43217;52.694;6.214;2023-07-16T08:02:22;5.68;;;4.03;;
57389;SDS011;43217;52.694;6.214;2023-07-16T08:04:50;4.95;;;3.90;;
57389;SDS011;43217;52.694;6.214;2023-07-16T08:07:17;8.68;;;4.53;;
57389;SDS011;43217;52.694;6.214;2023-07-16T08:09:42;7.15;;;3.90;;
57389;SDS011;43217;52.694;6.214;2023-07-16T08:12:08;7.00;;;4.40;;
57389;SDS011;43217;52.694;6.214;2023-07-16T08:14:34;7.97;;;4.55;;
57389;SDS011;43217;52.694;6.214;2023-07-16T08:17:00;6.00;;;3.70;;
57389;SDS011;43217;52.694;6.214;2023-07-16T08:19:25;9.10;;;4.60;;
57389;SDS011;43217;52.694;6.214;2023-07-16T08:21:51;6.10;;;4.53;;
57389;SDS011;43217;52.694;6.214;2023-07-16T08:24:17;7.30;;;4.13;;
57389;SDS011;43217;52.694;6.214;2023-07-16T08:26:43;8.27;;;4.53;;
57389;SDS011;43217;52.694;6.214;2023-07-16T08:29:10;13.13;;;5.82;;
57389;SDS011;43217;52.694;6.214;2023-07-16T08:31:35;8.30;;;4.55;;
57389;SDS011;43217;52.694;6.214;2023-07-16T08:34:01;6.28;;;4.05;;
57389;SDS011;43217;52.694;6.214;2023-07-16T08:36:27;7.72;;;5.00;;
57389;SDS011;43217;52.694;6.214;2023-07-16T08:38:52;4.40;;;3.90;;
57389;SDS011;43217;52.694;6.214;2023-07-16T08:41:18;6.13;;;4.32;;
57389;SDS011;43217;52.694;6.214;2023-07-16T08:43:46;6.10;;;4.30;;
57389;SDS011;43217;52.694;6.214;2023-07-16T08:46:17;7.55;;;4.38;;
57389;SDS011;43217;52.694;6.214;2023-07-16T08:48:44;6.85;;;3.92;;
57389;SDS011;43217;52.694;6.214;2023-07-16T08:51:10;7.05;;;3.80;;
57389;SDS011;43217;52.694;6.214;2023-07-16T08:53:40;6.93;;;4.50;;
57389;SDS011;43217;52.694;6.214;2023-07-16T08:56:06;7.65;;;4.22;;
57389;SDS011;43217;52.694;6.214;2023-07-16T08:58:31;5.97;;;4.28;;
57389;SDS011;43217;52.694;6.214;2023-07-16T09:00:58;6.57;;;3.80;;
57389;SDS011;43217;52.694;6.214;2023-07-16T09:03:25;8.63;;;4.05;;
57389;SDS011;43217;52.694;6.214;2023-07-16T09:05:51;7.35;;;4.20;;
57389;SDS011;43217;52.694;6.214;2023-07-16T09:10:44;8.03;;;4.07;;
57389;SDS011;43217;52.694;6.214;2023-07-16T09:13:10;7.38;;;4.85;;
57389;SDS011;43217;52.694;6.214;2023-07-16T09:15:35;8.45;;;4.60;;
57389;SDS011;43217;52.694;6.214;2023-07-16T09:18:03;7.97;;;4.18;;
57389;SDS011;43217;52.694;6.214;2023-07-16T09:20:29;7.75;;;4.63;;
57389;SDS011;43217;52.694;6.214;2023-07-16T09:22:56;9.95;;;4.32;;
57389;SDS011;43217;52.694;6.214;2023-07-16T09:25:29;8.98;;;5.50;;
57389;SDS011;43217;52.694;6.214;2023-07-16T09:27:57;8.52;;;4.55;;
57389;SDS011;43217;52.694;6.214;2023-07-16T09:30:30;7.50;;;4.80;;
57389;SDS011;43217;52.694;6.214;2023-07-16T09:33:03;7.47;;;4.07;;
57389;SDS011;43217;52.694;6.214;2023-07-16T09:35:47;7.28;;;4.65;;
57389;SDS011;43217;52.694;6.214;2023-07-16T09:38:13;5.38;;;4.57;;
57389;SDS011;43217;52.694;6.214;2023-07-16T09:40:40;4.40;;;3.70;;
57389;SDS011;43217;52.694;6.214;2023-07-16T09:43:07;10.05;;;4.78;;
57389;SDS011;43217;52.694;6.214;2023-07-16T09:45:34;6.72;;;4.65;;
57389;SDS011;43217;52.694;6.214;2023-07-16T09:48:00;9.95;;;5.03;;
57389;SDS011;43217;52.694;6.214;2023-07-16T09:50:28;5.72;;;4.65;;
57389;SDS011;43217;52.694;6.214;2023-07-16T09:52:59;7.68;;;4.82;;
57389;SDS011;43217;52.694;6.214;2023-07-16T09:55:24;6.63;;;4.70;;
57389;SDS011;43217;52.694;6.214;2023-07-16T09:57:55;6.32;;;4.63;;
57389;SDS011;43217;52.694;6.214;2023-07-16T10:00:22;5.90;;;4.93;;
57389;SDS011;43217;52.694;6.214;2023-07-16T10:02:49;7.90;;;4.22;;
57389;SDS011;43217;52.694;6.214;2023-07-16T10:07:51;6.70;;;4.60;;
57389;SDS011;43217;52.694;6.214;2023-07-16T10:10:18;7.65;;;4.30;;
57389;SDS011;43217;52.694;6.214;2023-07-16T10:12:54;7.25;;;4.93;;
57389;SDS011;43217;52.694;6.214;2023-07-16T10:15:27;6.57;;;4.75;;
57389;SDS011;43217;52.694;6.214;2023-07-16T10:20:29;5.40;;;4.47;;
57389;SDS011;43217;52.694;6.214;2023-07-16T10:23:09;9.50;;;4.80;;
57389;SDS011;43217;52.694;6.214;2023-07-16T10:25:39;6.32;;;4.68;;
57389;SDS011;43217;52.694;6.214;2023-07-16T10:28:05;6.27;;;4.73;;
57389;SDS011;43217;52.694;6.214;2023-07-16T10:30:32;8.32;;;4.40;;
57389;SDS011;43217;52.694;6.214;2023-07-16T10:33:02;6.35;;;3.92;;
57389;SDS011;43217;52.694;6.214;2023-07-16T10:35:35;8.13;;;4.57;;
57389;SDS011;43217;52.694;6.214;2023-07-16T10:38:06;6.13;;;4.80;;
57389;SDS011;43217;52.694;6.214;2023-07-16T10:40:32;8.40;;;4.57;;
57389;SDS011;43217;52.694;6.214;2023-07-16T10:42:58;7.20;;;4.00;;
57389;SDS011;43217;52.694;6.214;2023-07-16T10:45:25;6.68;;;4.40;;
57389;SDS011;43217;52.694;6.214;2023-07-16T10:47:52;5.75;;;4.00;;
57389;SDS011;43217;52.694;6.214;2023-07-16T10:50:19;7.53;;;4.80;;
57389;SDS011;43217;52.694;6.214;2023-07-16T10:52:55;5.85;;;3.92;;
57389;SDS011;43217;52.694;6.214;2023-07-16T10:55:22;6.38;;;4.78;;
57389;SDS011;43217;52.694;6.214;2023-07-16T10:57:48;6.65;;;4.50;;
57389;SDS011;43217;52.694;6.214;2023-07-16T11:00:16;5.10;;;4.18;;
57389;SDS011;43217;52.694;6.214;2023-07-16T11:02:45;10.10;;;4.50;;
57389;SDS011;43217;52.694;6.214;2023-07-16T11:05:15;6.35;;;4.50;;
57389;SDS011;43217;52.694;6.214;2023-07-16T11:07:50;7.25;;;4.97;;
57389;SDS011;43217;52.694;6.214;2023-07-16T11:10:16;7.95;;;4.78;;
57389;SDS011;43217;52.694;6.214;2023-07-16T11:12:43;8.10;;;4.93;;
57389;SDS011;43217;52.694;6.214;2023-07-16T11:15:11;7.80;;;4.75;;
57389;SDS011;43217;52.694;6.214;2023-07-16T11:17:37;6.50;;;4.47;;
57389;SDS011;43217;52.694;6.214;2023-07-16T11:20:07;6.65;;;4.70;;
57389;SDS011;43217;52.694;6.214;2023-07-16T11:22:36;8.52;;;4.72;;
57389;SDS011;43217;52.694;6.214;2023-07-16T11:25:03;5.78;;;4.20;;
57389;SDS011;43217;52.694;6.214;2023-07-16T11:27:32;6.47;;;4.28;;
57389;SDS011;43217;52.694;6.214;2023-07-16T11:29:58;7.28;;;4.22;;
57389;SDS011;43217;52.694;6.214;2023-07-16T11:32:29;7.25;;;4.32;;
57389;SDS011;43217;52.694;6.214;2023-07-16T11:34:56;6.22;;;4.50;;
57389;SDS011;43217;52.694;6.214;2023-07-16T11:39:56;6.50;;;4.30;;
57389;SDS011;43217;52.694;6.214;2023-07-16T11:42:23;5.28;;;4.45;;
57389;SDS011;43217;52.694;6.214;2023-07-16T11:47:15;5.50;;;4.63;;
57389;SDS011;43217;52.694;6.214;2023-07-16T11:49:40;6.93;;;4.43;;
57389;SDS011;43217;52.694;6.214;2023-07-16T11:52:07;7.05;;;4.20;;
57389;SDS011;43217;52.694;6.214;2023-07-16T11:54:32;7.05;;;4.55;;
57389;SDS011;43217;52.694;6.214;2023-07-16T11:56:58;13.45;;;5.45;;
57389;SDS011;43217;52.694;6.214;2023-07-16T11:59:24;9.20;;;5.68;;
57389;SDS011;43217;52.694;6.214;2023-07-16T12:01:49;6.05;;;4.35;;
57389;SDS011;43217;52.694;6.214;2023-07-16T12:04:16;5.88;;;4.18;;
57389;SDS011;43217;52.694;6.214;2023-07-16T12:09:08;8.33;;;5.73;;
57389;SDS011;43217;52.694;6.214;2023-07-16T12:11:33;7.22;;;4.82;;
57389;SDS011;43217;52.694;6.214;2023-07-16T12:13:59;8.07;;;4.57;;
57389;SDS011;43217;52.694;6.214;2023-07-16T12:16:24;6.90;;;5.30;;
57389;SDS011;43217;52.694;6.214;2023-07-16T12:18:50;5.95;;;4.53;;
57389;SDS011;43217;52.694;6.214;2023-07-16T12:21:16;5.13;;;4.60;;
57389;SDS011;43217;52.694;6.214;2023-07-16T12:23:41;5.63;;;4.07;;
57389;SDS011;43217;52.694;6.214;2023-07-16T12:26:07;6.05;;;5.20;;
57389;SDS011;43217;52.694;6.214;2023-07-16T12:28:33;5.50;;;4.18;;
57389;SDS011;43217;52.694;6.214;2023-07-16T12:30:59;8.05;;;4.75;;
57389;SDS011;43217;52.694;6.214;2023-07-16T12:33:25;7.38;;;4.35;;
57389;SDS011;43217;52.694;6.214;2023-07-16T12:35:50;7.40;;;4.78;;
57389;SDS011;43217;52.694;6.214;2023-07-16T12:38:16;6.25;;;4.15;;
57389;SDS011;43217;52.694;6.214;2023-07-16T12:40:43;3.58;;;2.53;;
57389;SDS011;43217;52.694;6.214;2023-07-16T12:43:09;5.10;;;2.45;;
57389;SDS011;43217;52.694;6.214;2023-07-16T12:45:37;3.45;;;2.85;;
57389;SDS011;43217;52.694;6.214;2023-07-16T12:48:02;4.50;;;2.92;;
57389;SDS011;43217;52.694;6.214;2023-07-16T12:50:28;3.90;;;3.00;;
57389;SDS011;43217;52.694;6.214;2023-07-16T12:52:54;5.85;;;3.80;;
57389;SDS011;43217;52.694;6.214;2023-07-16T12:55:20;7.78;;;4.38;;
57389;SDS011;43217;52.694;6.214;2023-07-16T12:57:46;6.50;;;4.20;;
57389;SDS011;43217;52.694;6.214;2023-07-16T13:00:15;9.65;;;4.63;;
57389;SDS011;43217;52.694;6.214;2023-07-16T13:02:41;8.32;;;4.13;;
57389;SDS011;43217;52.694;6.214;2023-07-16T13:05:07;3.85;;;3.17;;
57389;SDS011;43217;52.694;6.214;2023-07-16T13:07:33;8.87;;;4.30;;
57389;SDS011;43217;52.694;6.214;2023-07-16T13:09:59;7.07;;;3.08;;
57389;SDS011;43217;52.694;6.214;2023-07-16T13:12:30;5.90;;;3.20;;
57389;SDS011;43217;52.694;6.214;2023-07-16T13:14:57;3.63;;;2.78;;
57389;SDS011;43217;52.694;6.214;2023-07-16T13:17:23;4.63;;;2.30;;
57389;SDS011;43217;52.694;6.214;2023-07-16T13:19:48;5.95;;;2.60;;
57389;SDS011;43217;52.694;6.214;2023-07-16T13:22:14;4.97;;;2.72;;
57389;SDS011;43217;52.694;6.214;2023-07-16T13:24:40;2.83;;;2.50;;
57389;SDS011;43217;52.694;6.214;2023-07-16T13:27:05;3.55;;;2.40;;
57389;SDS011;43217;52.694;6.214;2023-07-16T13:29:31;3.95;;;2.30;;
57389;SDS011;43217;52.694;6.214;2023-07-16T13:31:57;3.70;;;2.22;;
57389;SDS011;43217;52.694;6.214;2023-07-16T13:34:22;3.53;;;2.20;;
57389;SDS011;43217;52.694;6.214;2023-07-16T13:36:48;4.40;;;1.98;;
57389;SDS011;43217;52.694;6.214;2023-07-16T13:39:13;4.22;;;2.10;;
57389;SDS011;43217;52.694;6.214;2023-07-16T13:41:39;4.78;;;2.00;;
57389;SDS011;43217;52.694;6.214;2023-07-16T13:44:05;3.78;;;1.90;;
57389;SDS011;43217;52.694;6.214;2023-07-16T13:46:31;4.80;;;2.08;;
57389;SDS011;43217;52.694;6.214;2023-07-16T13:48:56;4.80;;;1.77;;
57389;SDS011;43217;52.694;6.214;2023-07-16T13:51:22;2.95;;;2.20;;
57389;SDS011;43217;52.694;6.214;2023-07-16T13:53:48;4.22;;;1.88;;
57389;SDS011;43217;52.694;6.214;2023-07-16T13:56:14;3.95;;;1.90;;
57389;SDS011;43217;52.694;6.214;2023-07-16T14:01:12;3.15;;;2.15;;
57389;SDS011;43217;52.694;6.214;2023-07-16T14:03:38;6.35;;;2.33;;
57389;SDS011;43217;52.694;6.214;2023-07-16T14:06:04;4.13;;;2.55;;
57389;SDS011;43217;52.694;6.214;2023-07-16T14:08:29;4.88;;;2.30;;
57389;SDS011;43217;52.694;6.214;2023-07-16T14:10:58;3.60;;;2.13;;
57389;SDS011;43217;52.694;6.214;2023-07-16T14:13:27;3.75;;;2.22;;
57389;SDS011;43217;52.694;6.214;2023-07-16T14:15:52;3.33;;;2.50;;
57389;SDS011;43217;52.694;6.214;2023-07-16T14:18:18;4.50;;;2.47;;
57389;SDS011;43217;52.694;6.214;2023-07-16T14:20:44;3.72;;;2.00;;
57389;SDS011;43217;52.694;6.214;2023-07-16T14:23:09;7.60;;;3.65;;
57389;SDS011;43217;52.694;6.214;2023-07-16T14:25:35;5.07;;;3.10;;
57389;SDS011;43217;52.694;6.214;2023-07-16T14:28:00;5.97;;;2.88;;
57389;SDS011;43217;52.694;6.214;2023-07-16T14:30:26;4.38;;;2.50;;
57389;SDS011;43217;52.694;6.214;2023-07-16T14:32:52;6.63;;;3.05;;
57389;SDS011;43217;52.694;6.214;2023-07-16T14:35:18;5.75;;;2.75;;
57389;SDS011;43217;52.694;6.214;2023-07-16T14:37:43;6.55;;;3.30;;
57389;SDS011;43217;52.694;6.214;2023-07-16T14:40:09;5.63;;;2.75;;
57389;SDS011;43217;52.694;6.214;2023-07-16T14:42:35;5.60;;;3.70;;
57389;SDS011;43217;52.694;6.214;2023-07-16T14:45:01;4.57;;;2.80;;
57389;SDS011;43217;52.694;6.214;2023-07-16T14:47:27;5.90;;;3.22;;
57389;SDS011;43217;52.694;6.214;2023-07-16T14:49:53;4.88;;;2.65;;
57389;SDS011;43217;52.694;6.214;2023-07-16T14:52:19;4.80;;;2.90;;
57389;SDS011;43217;52.694;6.214;2023-07-16T14:54:44;4.45;;;2.78;;
57389;SDS011;43217;52.694;6.214;2023-07-16T14:57:10;4.47;;;2.50;;
57389;SDS011;43217;52.694;6.214;2023-07-16T14:59:36;5.78;;;2.80;;
57389;SDS011;43217;52.694;6.214;2023-07-16T15:02:03;7.07;;;2.85;;
57389;SDS011;43217;52.694;6.214;2023-07-16T15:04:29;7.10;;;2.80;;
57389;SDS011;43217;52.694;6.214;2023-07-16T15:06:55;5.57;;;2.67;;
57389;SDS011;43217;52.694;6.214;2023-07-16T15:09:21;5.28;;;2.85;;
57389;SDS011;43217;52.694;6.214;2023-07-16T15:11:47;5.88;;;2.45;;